createdAt,value
2023-04-07T00:00:13.374Z,4.91
2023-04-07T00:03:07.174Z,4.92
2023-04-07T00:05:37.089Z,4.91
2023-04-07T00:08:06.646Z,4.93
2023-04-07T00:10:40.248Z,4.94
2023-04-07T00:13:09.491Z,4.95
2023-04-07T00:15:40.583Z,4.98
2023-04-07T00:18:09.885Z,4.99
2023-04-07T00:20:39.481Z,5.04
2023-04-07T00:23:08.597Z,5.05
2023-04-07T00:25:37.978Z,5.02
2023-04-07T00:28:07.258Z,5.01
2023-04-07T00:30:36.613Z,5.04
2023-04-07T00:33:09.741Z,5.04
2023-04-07T00:35:39.511Z,5.01
2023-04-07T00:38:08.638Z,4.95
2023-04-07T00:40:38.145Z,4.96
2023-04-07T00:43:07.317Z,4.98
2023-04-07T00:45:37.840Z,5.05
2023-04-07T00:48:09.404Z,5.06
2023-04-07T00:50:38.818Z,5.06
2023-04-07T00:53:08.172Z,5.08
2023-04-07T00:55:37.707Z,5.06
2023-04-07T00:58:06.946Z,5.03
2023-04-07T01:00:42.605Z,5.01
2023-04-07T01:03:19.461Z,5.03
2023-04-07T01:05:57.088Z,5.03
2023-04-07T01:08:34.506Z,5.05
2023-04-07T01:11:14.804Z,5.04
2023-04-07T01:13:49.563Z,5.05
2023-04-07T01:16:47.084Z,5.06
2023-04-07T01:19:33.457Z,5.05
2023-04-07T01:22:05.532Z,5.04
2023-04-07T01:25:02.591Z,5.05
2023-04-07T01:27:44.295Z,5.06
2023-04-07T01:30:16.726Z,5.06
2023-04-07T01:32:51.624Z,5.05
2023-04-07T01:35:22.172Z,5.06
2023-04-07T01:37:53.755Z,5.07
2023-04-07T01:40:23.984Z,5.18
2023-04-07T01:42:54.463Z,5.13
2023-04-07T01:45:25.913Z,5.07
2023-04-07T01:47:56.426Z,5.07
2023-04-07T01:50:25.989Z,5.07
2023-04-07T01:52:55.972Z,5.04
2023-04-07T01:55:26.113Z,5.04
2023-04-07T01:58:07.118Z,5.08
2023-04-07T02:00:39.614Z,5.08
2023-04-07T02:03:21.800Z,5.08
2023-04-07T02:05:55.961Z,5.10
2023-04-07T02:08:31.882Z,5.09
2023-04-07T02:11:05.019Z,5.14
2023-04-07T02:13:40.350Z,5.12
2023-04-07T02:16:15.798Z,5.09
2023-04-07T02:18:47.863Z,5.11
2023-04-07T02:21:18.556Z,5.09
2023-04-07T02:23:49.022Z,5.09
2023-04-07T02:26:18.292Z,5.11
2023-04-07T02:28:47.677Z,5.12
2023-04-07T02:31:27.322Z,5.13
2023-04-07T02:33:56.923Z,5.12
2023-04-07T02:36:26.490Z,5.13
2023-04-07T02:38:55.759Z,5.12
2023-04-07T02:41:25.035Z,5.13
2023-04-07T02:43:55.431Z,5.14
2023-04-07T02:46:26.364Z,5.13
2023-04-07T02:48:55.773Z,5.13
2023-04-07T02:51:24.998Z,5.11
2023-04-07T02:53:54.557Z,5.13
2023-04-07T02:56:23.935Z,5.15
2023-04-07T02:58:53.354Z,5.15
2023-04-07T03:01:23.035Z,5.23
2023-04-07T03:03:55.829Z,5.22
2023-04-07T03:06:28.207Z,5.20
2023-04-07T03:09:09.011Z,5.20
2023-04-07T03:11:38.502Z,5.18
2023-04-07T03:14:08.292Z,5.16
2023-04-07T03:16:44.247Z,5.16
2023-04-07T03:19:17.394Z,5.18
2023-04-07T03:21:49.885Z,5.17
2023-04-07T03:24:19.394Z,5.19
2023-04-07T03:26:49.083Z,5.21
2023-04-07T03:29:28.069Z,5.18
2023-04-07T03:31:57.646Z,5.16
2023-04-07T03:34:29.326Z,5.26
2023-04-07T03:37:00.615Z,5.20
2023-04-07T03:39:32.659Z,5.19
2023-04-07T03:42:03.432Z,5.20
2023-04-07T03:44:35.277Z,5.19
2023-04-07T03:47:04.496Z,5.20
2023-04-07T03:49:38.397Z,5.20
2023-04-07T03:52:08.743Z,5.22
2023-04-07T03:54:38.769Z,5.22
2023-04-07T03:57:08.219Z,5.28
2023-04-07T03:59:43.632Z,5.26
2023-04-07T04:02:13.177Z,5.28
2023-04-07T04:04:44.399Z,5.24
2023-04-07T04:07:14.590Z,5.32
2023-04-07T04:09:47.989Z,5.32
2023-04-07T04:12:17.539Z,5.27
2023-04-07T04:15:03.192Z,5.32
2023-04-07T04:17:34.123Z,5.31
2023-04-07T04:20:07.917Z,5.29
2023-04-07T04:22:45.440Z,5.32
2023-04-07T04:25:15.231Z,5.35
2023-04-07T04:27:49.505Z,5.32
2023-04-07T04:30:28.440Z,5.32
2023-04-07T04:33:03.201Z,5.30
2023-04-07T04:36:07.843Z,5.33
2023-04-07T04:38:37.274Z,5.33
2023-04-07T04:41:14.613Z,5.32
2023-04-07T04:43:45.202Z,5.38
2023-04-07T04:46:19.527Z,5.44
2023-04-07T04:48:51.620Z,5.39
2023-04-07T04:51:24.195Z,5.38
2023-04-07T04:53:58.619Z,5.39
2023-04-07T04:56:29.653Z,5.41
2023-04-07T04:58:59.004Z,5.48
2023-04-07T05:01:40.634Z,5.44
2023-04-07T05:04:14.136Z,5.41
2023-04-07T05:06:52.326Z,5.37
2023-04-07T05:09:24.796Z,5.39
2023-04-07T05:11:54.240Z,5.40
2023-04-07T05:14:24.454Z,5.43
2023-04-07T05:17:05.334Z,5.41
2023-04-07T05:19:34.960Z,5.39
2023-04-07T05:22:13.433Z,5.40
2023-04-07T05:24:47.736Z,5.39
2023-04-07T05:27:17.362Z,5.37
2023-04-07T05:29:49.718Z,5.38
2023-04-07T05:32:29.621Z,5.40
2023-04-07T05:35:01.124Z,5.45
2023-04-07T05:37:38.812Z,5.42
2023-04-07T05:40:10.414Z,5.39
2023-04-07T05:42:40.642Z,5.50
2023-04-07T05:45:11.599Z,5.51
2023-04-07T05:47:44.553Z,5.57
2023-04-07T05:50:14.821Z,5.56
2023-04-07T05:52:48.656Z,5.56
2023-04-07T05:55:23.679Z,5.64
2023-04-07T05:57:54.932Z,5.67
2023-04-07T06:00:27.493Z,5.68
2023-04-07T06:03:07.932Z,5.63
2023-04-07T06:05:49.124Z,5.67
2023-04-07T06:08:23.163Z,5.62
2023-04-07T06:10:52.597Z,5.65
2023-04-07T06:13:21.957Z,5.70
2023-04-07T06:15:51.245Z,5.73
2023-04-07T06:18:20.586Z,5.74
2023-04-07T06:20:49.744Z,5.77
2023-04-07T06:23:23.654Z,5.81
2023-04-07T06:25:53.352Z,5.79
2023-04-07T06:28:22.569Z,5.88
2023-04-07T06:30:51.838Z,5.86
2023-04-07T06:33:25.759Z,5.90
2023-04-07T06:35:55.027Z,5.95
2023-04-07T06:38:25.996Z,5.99
2023-04-07T06:40:55.168Z,6.02
2023-04-07T06:43:24.704Z,6.08
2023-04-07T06:45:59.904Z,6.13
2023-04-07T06:48:29.411Z,6.12
2023-04-07T06:50:59.146Z,6.18
2023-04-07T06:53:32.199Z,6.19
2023-04-07T06:56:09.441Z,6.20
2023-04-07T06:58:39.657Z,6.20
2023-04-07T07:01:08.609Z,6.19
2023-04-07T07:03:38.094Z,6.28
2023-04-07T07:06:07.595Z,6.26
2023-04-07T07:08:38.528Z,6.22
2023-04-07T07:11:07.931Z,6.22
2023-04-07T07:13:37.299Z,6.21
2023-04-07T07:16:07.338Z,6.23
2023-04-07T07:18:38.045Z,6.24
2023-04-07T07:21:07.412Z,6.26
2023-04-07T07:23:41.006Z,6.27
2023-04-07T07:26:10.252Z,6.27
2023-04-07T07:28:39.776Z,6.25
2023-04-07T07:31:15.236Z,6.32
2023-04-07T07:33:46.517Z,6.32
2023-04-07T07:36:16.334Z,6.36
2023-04-07T07:38:46.886Z,6.44
2023-04-07T07:41:16.072Z,6.42
2023-04-07T07:43:45.636Z,6.45
2023-04-07T07:46:15.172Z,6.48
2023-04-07T07:48:44.807Z,6.48
2023-04-07T07:51:13.982Z,6.50
2023-04-07T07:53:43.433Z,6.51
2023-04-07T07:56:14.229Z,6.60
2023-04-07T07:58:43.706Z,6.64
2023-04-07T08:01:12.840Z,6.69
2023-04-07T08:03:42.482Z,6.72
2023-04-07T08:06:12.003Z,6.73
2023-04-07T08:08:41.325Z,6.76
2023-04-07T08:11:10.490Z,6.81
2023-04-07T08:13:45.525Z,6.89
2023-04-07T08:16:15.038Z,6.95
2023-04-07T08:18:44.550Z,6.94
2023-04-07T08:21:14.127Z,7.04
2023-04-07T08:23:43.710Z,7.07
2023-04-07T08:26:12.926Z,7.19
2023-04-07T08:28:43.790Z,7.22
2023-04-07T08:31:13.040Z,7.29
2023-04-07T08:33:42.541Z,7.35
2023-04-07T08:36:12.218Z,7.39
2023-04-07T08:38:41.487Z,7.45
2023-04-07T08:41:13.662Z,7.47
2023-04-07T08:43:47.157Z,7.52
2023-04-07T08:46:17.381Z,7.53
2023-04-07T08:48:50.911Z,7.57
2023-04-07T08:51:28.710Z,7.59
2023-04-07T08:54:06.704Z,7.63
2023-04-07T08:56:36.107Z,7.63
2023-04-07T08:59:07.112Z,7.61
2023-04-07T09:01:38.368Z,7.60
2023-04-07T09:04:08.703Z,7.65
2023-04-07T09:06:38.977Z,7.68
2023-04-07T09:09:08.476Z,7.71
2023-04-07T09:11:38.915Z,7.70
2023-04-07T09:14:11.979Z,7.72
2023-04-07T09:16:41.479Z,7.79
2023-04-07T09:19:10.739Z,7.76
2023-04-07T09:21:51.308Z,7.79
2023-04-07T09:24:25.145Z,7.80
2023-04-07T09:27:10.110Z,7.84
2023-04-07T09:29:43.797Z,7.87
2023-04-07T09:32:15.623Z,7.91
2023-04-07T09:34:45.226Z,8.02
2023-04-07T09:37:23.868Z,8.05
2023-04-07T09:39:54.162Z,8.06
2023-04-07T09:42:23.598Z,8.09
2023-04-07T09:44:54.110Z,8.15
2023-04-07T09:47:29.232Z,8.24
2023-04-07T09:49:59.886Z,8.32
2023-04-07T09:52:53.865Z,8.40
2023-04-07T09:55:24.834Z,8.51
2023-04-07T09:57:56.744Z,8.58
2023-04-07T10:00:28.178Z,8.65
2023-04-07T10:02:58.225Z,8.74
2023-04-07T10:05:28.940Z,8.82
2023-04-07T10:07:58.318Z,8.90
2023-04-07T10:10:28.811Z,8.94
2023-04-07T10:13:00.203Z,9.04
2023-04-07T10:15:31.693Z,9.07
2023-04-07T10:18:04.397Z,9.13
2023-04-07T10:20:34.386Z,9.21
2023-04-07T10:23:06.178Z,9.26
2023-04-07T10:25:37.225Z,9.35
2023-04-07T10:28:09.775Z,9.44
2023-04-07T10:30:41.892Z,9.52
2023-04-07T10:33:11.244Z,9.58
2023-04-07T10:36:05.026Z,9.64
2023-04-07T10:38:34.696Z,9.73
2023-04-07T10:41:32.714Z,9.82
2023-04-07T10:44:03.012Z,9.81
2023-04-07T10:47:11.238Z,9.90
2023-04-07T10:50:02.133Z,10.01
2023-04-07T10:52:32.299Z,10.09
2023-04-07T10:55:35.849Z,10.12
2023-04-07T10:58:19.801Z,10.30
2023-04-07T11:01:22.503Z,10.42
2023-04-07T11:04:02.302Z,10.54
2023-04-07T11:06:33.213Z,10.68
2023-04-07T11:09:02.763Z,10.83
2023-04-07T11:11:39.998Z,10.82
2023-04-07T11:14:09.490Z,10.85
2023-04-07T11:16:41.660Z,10.97
2023-04-07T11:19:11.784Z,11.11
2023-04-07T11:21:42.728Z,11.24
2023-04-07T11:24:12.408Z,11.30
2023-04-07T11:26:43.829Z,11.40
2023-04-07T11:29:13.856Z,11.51
2023-04-07T11:31:48.633Z,11.56
2023-04-07T11:34:18.223Z,11.65
2023-04-07T11:36:49.071Z,11.71
2023-04-07T11:39:22.756Z,11.82
2023-04-07T11:41:52.827Z,11.83
2023-04-07T11:44:22.221Z,11.89
2023-04-07T11:46:58.661Z,11.93
2023-04-07T11:49:29.412Z,11.97
2023-04-07T11:52:04.443Z,12.08
2023-04-07T11:54:42.877Z,12.15
2023-04-07T11:57:13.173Z,12.22
2023-04-07T11:59:43.311Z,12.33
2023-04-07T12:02:14.743Z,12.41
2023-04-07T12:04:58.498Z,12.51
2023-04-07T12:07:29.496Z,12.51
2023-04-07T12:09:59.064Z,12.52
2023-04-07T12:12:30.861Z,12.61
2023-04-07T12:15:01.884Z,12.62
2023-04-07T12:17:33.680Z,12.75
2023-04-07T12:20:03.303Z,12.86
2023-04-07T12:22:35.155Z,12.96
2023-04-07T12:25:04.774Z,13.07
2023-04-07T12:27:42.637Z,13.12
2023-04-07T12:30:14.043Z,13.21
2023-04-07T12:32:44.488Z,13.26
2023-04-07T12:35:14.124Z,13.24
2023-04-07T12:37:44.549Z,13.21
2023-04-07T12:40:16.219Z,13.25
2023-04-07T12:42:45.476Z,13.25
2023-04-07T12:45:14.655Z,13.26
2023-04-07T12:47:44.273Z,13.26
2023-04-07T12:50:13.737Z,13.20
2023-04-07T12:52:44.346Z,13.17
2023-04-07T12:55:14.965Z,13.20
2023-04-07T12:57:44.255Z,13.15
2023-04-07T13:00:13.726Z,13.08
2023-04-07T13:02:43.574Z,13.01
2023-04-07T13:05:13.138Z,13.04
2023-04-07T13:07:42.407Z,13.09
2023-04-07T13:10:13.402Z,13.12
2023-04-07T13:12:42.717Z,13.14
2023-04-07T13:15:11.962Z,13.11
2023-04-07T13:17:41.470Z,13.19
2023-04-07T13:20:11.541Z,13.24
2023-04-07T13:22:49.080Z,13.21
2023-04-07T13:25:22.963Z,13.27
2023-04-07T13:27:52.309Z,13.29
2023-04-07T13:30:22.852Z,13.31
2023-04-07T13:32:52.297Z,13.32
2023-04-07T13:35:21.528Z,13.38
2023-04-07T13:37:52.078Z,13.51
2023-04-07T13:40:23.512Z,13.57
2023-04-07T13:42:52.738Z,13.53
2023-04-07T13:45:23.486Z,13.56
2023-04-07T13:47:53.903Z,13.57
2023-04-07T13:50:25.195Z,13.54
2023-04-07T13:52:54.621Z,13.53
2023-04-07T13:55:25.720Z,13.49
2023-04-07T13:57:57.170Z,13.38
2023-04-07T14:00:27.080Z,13.30
2023-04-07T14:02:57.236Z,13.32
2023-04-07T14:05:27.028Z,13.37
2023-04-07T14:07:56.388Z,13.32
2023-04-07T14:10:27.432Z,13.31
2023-04-07T14:12:57.151Z,13.31
2023-04-07T14:15:26.854Z,13.25
2023-04-07T14:17:55.995Z,13.19
2023-04-07T14:20:27.169Z,13.15
2023-04-07T14:22:56.891Z,13.17
2023-04-07T14:25:27.636Z,13.09
2023-04-07T14:27:57.598Z,13.07
2023-04-07T14:30:27.215Z,12.99
2023-04-07T14:32:56.522Z,12.99
2023-04-07T14:35:25.736Z,12.95
2023-04-07T14:37:55.630Z,12.94
2023-04-07T14:40:26.853Z,12.88
2023-04-07T14:45:28.886Z,12.88
2023-04-07T14:47:58.161Z,12.87
2023-04-07T14:50:28.082Z,12.86
2023-04-07T14:52:59.849Z,12.85
2023-04-07T14:55:32.034Z,12.83
2023-04-07T14:58:01.481Z,12.76
2023-04-07T15:00:31.225Z,12.77
2023-04-07T15:03:00.640Z,12.74
2023-04-07T15:05:31.582Z,12.71
2023-04-07T15:08:00.904Z,12.64
2023-04-07T15:10:33.364Z,12.60
2023-04-07T15:13:03.317Z,12.59
2023-04-07T15:15:34.205Z,12.53
2023-04-07T15:18:04.387Z,12.51
2023-04-07T15:20:34.084Z,12.53
2023-04-07T15:23:03.558Z,12.48
2023-04-07T15:25:34.337Z,12.46
2023-04-07T15:28:03.797Z,12.46
2023-04-07T15:30:35.851Z,12.47
2023-04-07T15:33:06.501Z,12.46
2023-04-07T15:35:36.409Z,12.48
2023-04-07T15:38:05.630Z,12.59
2023-04-07T15:40:40.192Z,12.74
2023-04-07T15:43:11.157Z,12.75
2023-04-07T15:45:43.754Z,12.82
2023-04-07T15:48:13.565Z,12.88
2023-04-07T15:50:43.239Z,12.98
2023-04-07T15:53:12.590Z,13.10
2023-04-07T15:55:44.331Z,13.17
2023-04-07T15:58:13.781Z,13.22
2023-04-07T16:00:43.692Z,13.38
2023-04-07T16:03:13.105Z,13.55
2023-04-07T16:05:42.746Z,13.75
2023-04-07T16:08:13.721Z,13.94
2023-04-07T16:10:44.817Z,14.16
2023-04-07T16:13:14.076Z,14.34
2023-04-07T16:15:43.609Z,14.58
2023-04-07T16:18:13.174Z,14.80
2023-04-07T16:20:43.172Z,14.94
2023-04-07T16:23:12.711Z,15.14
2023-04-07T16:25:43.832Z,15.29
2023-04-07T16:28:13.032Z,15.34
2023-04-07T16:30:44.009Z,15.52
2023-04-07T16:33:13.196Z,15.63
2023-04-07T16:35:42.832Z,15.68
2023-04-07T16:38:12.206Z,15.54
2023-04-07T16:40:56.814Z,15.45
2023-04-07T16:43:33.435Z,15.38
2023-04-07T16:46:06.358Z,15.34
2023-04-07T16:48:36.132Z,15.29
2023-04-07T16:51:05.870Z,15.04
2023-04-07T16:53:34.727Z,14.78
2023-04-07T16:56:05.668Z,14.66
2023-04-07T16:58:34.871Z,14.46
2023-04-07T17:01:04.321Z,14.30
2023-04-07T17:03:36.008Z,14.18
2023-04-07T17:06:06.221Z,14.06
2023-04-07T17:08:36.064Z,13.89
2023-04-07T17:11:10.235Z,13.75
2023-04-07T17:13:40.299Z,13.55
2023-04-07T17:16:14.982Z,13.52
2023-04-07T17:18:44.230Z,13.48
2023-04-07T17:21:13.642Z,13.40
2023-04-07T17:23:43.019Z,13.24
2023-04-07T17:26:13.869Z,12.94
2023-04-07T17:28:43.267Z,12.88
2023-04-07T17:31:14.687Z,12.77
2023-04-07T17:33:43.893Z,12.64
2023-04-07T17:36:15.427Z,12.55
2023-04-07T17:38:45.665Z,12.47
2023-04-07T17:41:17.275Z,12.32
2023-04-07T17:43:46.883Z,12.23
2023-04-07T17:46:16.627Z,12.18
2023-04-07T17:48:45.841Z,12.07
2023-04-07T17:51:15.512Z,12.02
2023-04-07T17:53:46.021Z,11.92
2023-04-07T17:56:17.245Z,11.86
2023-04-07T17:58:46.706Z,11.74
2023-04-07T18:01:16.936Z,11.72
2023-04-07T18:03:47.544Z,11.63
2023-04-07T18:06:18.214Z,11.57
2023-04-07T18:08:48.832Z,11.51
2023-04-07T18:11:20.210Z,11.41
2023-04-07T18:13:49.550Z,11.35
2023-04-07T18:16:22.148Z,11.28
2023-04-07T18:18:52.815Z,11.32
2023-04-07T18:21:22.358Z,11.21
2023-04-07T18:23:52.074Z,11.10
2023-04-07T18:26:23.710Z,11.12
2023-04-07T18:28:53.257Z,11.13
2023-04-07T18:31:23.240Z,11.07
2023-04-07T18:33:52.536Z,10.95
2023-04-07T18:36:25.622Z,10.90
2023-04-07T18:38:54.983Z,10.85
2023-04-07T18:41:27.227Z,10.81
2023-04-07T18:43:56.528Z,10.78
2023-04-07T18:46:25.888Z,10.80
2023-04-07T18:48:55.742Z,10.76
2023-04-07T18:51:25.075Z,10.72
2023-04-07T18:53:54.133Z,10.70
2023-04-07T18:56:27.333Z,10.61
2023-04-07T18:58:57.191Z,10.57
2023-04-07T19:01:27.722Z,10.60
2023-04-07T19:03:57.695Z,10.48
2023-04-07T19:06:28.073Z,10.52
2023-04-07T19:08:57.843Z,10.44
2023-04-07T19:11:29.204Z,10.48
2023-04-07T19:13:58.552Z,10.41
2023-04-07T19:16:27.979Z,10.37
2023-04-07T19:18:57.253Z,10.32
2023-04-07T19:21:27.582Z,10.34
2023-04-07T19:23:56.910Z,10.27
2023-04-07T19:26:28.064Z,10.25
2023-04-07T19:28:58.302Z,10.25
2023-04-07T19:31:28.287Z,10.20
2023-04-07T19:33:58.552Z,10.18
2023-04-07T19:36:28.394Z,10.18
2023-04-07T19:39:01.037Z,10.16
2023-04-07T19:41:33.429Z,10.14
2023-04-07T19:44:03.251Z,10.07
2023-04-07T19:46:34.188Z,10.07
2023-04-07T19:49:03.519Z,10.02
2023-04-07T19:51:33.613Z,10.04
2023-04-07T19:54:03.806Z,10.04
2023-04-07T19:56:36.229Z,10.04
2023-04-07T19:59:10.518Z,9.99
2023-04-07T20:01:45.660Z,9.99
2023-04-07T20:04:17.266Z,9.95
2023-04-07T20:06:51.319Z,9.94
2023-04-07T20:09:22.843Z,9.94
2023-04-07T20:12:01.914Z,9.95
2023-04-07T20:14:34.233Z,9.95
2023-04-07T20:17:04.043Z,9.93
2023-04-07T20:19:33.281Z,9.92
2023-04-07T20:22:02.875Z,9.90
2023-04-07T20:24:32.142Z,9.88
2023-04-07T20:27:02.862Z,9.83
2023-04-07T20:29:32.289Z,9.78
2023-04-07T20:32:01.437Z,9.77
2023-04-07T20:34:30.722Z,9.71
2023-04-07T20:37:00.190Z,9.68
2023-04-07T20:39:29.344Z,9.61
2023-04-07T20:41:59.253Z,9.57
2023-04-07T20:44:31.426Z,9.57
2023-04-07T20:47:01.187Z,9.51
2023-04-07T20:49:30.348Z,9.49
2023-04-07T20:51:59.928Z,9.49
2023-04-07T20:54:29.898Z,9.46
2023-04-07T20:57:00.655Z,9.44
2023-04-07T20:59:32.697Z,9.37
2023-04-07T21:02:02.286Z,9.39
2023-04-07T21:04:31.748Z,9.36
2023-04-07T21:07:01.361Z,9.34
2023-04-07T21:09:30.426Z,9.32
2023-04-07T21:12:02.057Z,9.29
2023-04-07T21:14:32.800Z,9.24
2023-04-07T21:17:02.409Z,9.21
2023-04-07T21:19:32.178Z,9.16
2023-04-07T21:22:01.596Z,9.15
2023-04-07T21:24:32.124Z,9.12
2023-04-07T21:27:02.103Z,9.08
2023-04-07T21:29:34.021Z,9.05
2023-04-07T21:32:03.548Z,9.02
2023-04-07T21:34:32.586Z,8.98
2023-04-07T21:37:02.016Z,8.96
2023-04-07T21:39:31.325Z,8.93
2023-04-07T21:42:02.356Z,8.90
2023-04-07T21:44:32.935Z,8.87
2023-04-07T21:47:03.820Z,8.86
2023-04-07T21:49:32.980Z,8.81
2023-04-07T21:52:02.371Z,8.81
2023-04-07T21:54:31.620Z,8.79
2023-04-07T21:57:01.403Z,8.77
2023-04-07T21:59:30.464Z,8.77
2023-04-07T22:02:01.317Z,8.74
2023-04-07T22:04:30.815Z,8.64
2023-04-07T22:07:00.772Z,8.68
2023-04-07T22:09:29.920Z,8.68
2023-04-07T22:11:59.294Z,8.65
2023-04-07T22:14:29.277Z,8.65
2023-04-07T22:17:00.658Z,8.58
2023-04-07T22:19:29.846Z,8.58
2023-04-07T22:21:59.223Z,8.52
2023-04-07T22:24:28.489Z,8.54
2023-04-07T22:26:58.862Z,8.51
2023-04-07T22:29:29.474Z,8.48
2023-04-07T22:32:00.460Z,8.48
2023-04-07T22:34:29.733Z,8.48
2023-04-07T22:36:59.063Z,8.44
2023-04-07T22:39:28.237Z,8.49
2023-04-07T22:41:57.588Z,8.49
2023-04-07T22:44:26.773Z,8.47
2023-04-07T22:46:56.461Z,8.42
2023-04-07T22:49:28.238Z,8.36
2023-04-07T22:51:57.730Z,8.37
2023-04-07T22:54:26.820Z,8.36
2023-04-07T22:56:56.825Z,8.33
2023-04-07T22:59:25.820Z,8.30
2023-04-07T23:01:57.706Z,8.30
2023-04-07T23:04:28.669Z,8.27
2023-04-07T23:06:58.119Z,8.25
2023-04-07T23:09:27.668Z,8.28
2023-04-07T23:11:57.950Z,8.29
2023-04-07T23:14:27.271Z,8.30
2023-04-07T23:16:57.897Z,8.31
2023-04-07T23:19:28.535Z,8.29
2023-04-07T23:21:58.001Z,8.29
2023-04-07T23:24:27.273Z,8.26
2023-04-07T23:26:56.986Z,8.27
2023-04-07T23:29:26.203Z,8.24
2023-04-07T23:31:55.628Z,8.27
2023-04-07T23:34:25.205Z,8.21
2023-04-07T23:36:55.685Z,8.20
2023-04-07T23:39:24.777Z,8.19
2023-04-07T23:41:54.238Z,8.15
2023-04-07T23:44:23.338Z,8.21
2023-04-07T23:46:52.774Z,8.14
2023-04-07T23:49:22.266Z,8.15
2023-04-07T23:51:52.042Z,8.12
2023-04-07T23:54:22.614Z,8.08
2023-04-07T23:56:52.055Z,8.08
2023-04-07T23:59:21.252Z,8.07
